F\v Desperado — FVFQ — position and weather

sailwx.info

Track history (hours):
 
Tides and Currents Weather Stations Pressure Air Temp Water Temp Dewpoint Dewpoint Depression Visibility Wind Speed Wind Dir Waves Ship Positions

F\v Desperado

Last reported at 2017-Jun-26 19:18 UTC. Time now 2017-Jun-26 20:57 UTC.
Position N 46°11' W 002°34'.

Type: Fishing. MMSI: 228312000.

Date/timePositionNaut miles runAvg speedWind from/ knotsBaromVisibWave heightAir tempDewpointWater temp
2017-Jun-26 19:18N 46°11' W 002°34'1 3.4
2017-Jun-26 18:57N 46°11' W 002°32'1 0.7
2017-Jun-26 17:49N 46°11' W 002°33'2 3.0
2017-Jun-26 17:17N 46°11' W 002°31'3 0.3
2017-Jun-26 06:30N 46°11' W 002°27'5 9.2
2017-Jun-26 05:59N 46°14' W 002°21'4 8.9
2017-Jun-26 05:30N 46°16' W 002°15'4 8.9
2017-Jun-26 05:00N 46°19' W 002°10'4 8.8
2017-Jun-26 04:30N 46°21' W 002°04'4 8.4
2017-Jun-26 04:01N 46°23' W 001°59'4 8.4
2017-Jun-26 03:30N 46°25' W 001°54'4 8.4
2017-Jun-26 03:00N 46°27' W 001°49'3 5.3
2017-Jun-26 02:30N 46°30' W 001°47'0 0.4
2017-Jun-26 02:01N 46°30' W 001°47'0 0.0
2017-Jun-26 01:30N 46°30' W 001°47'3 5.3
2017-Jun-26 01:00N 46°27' W 001°49'4 8.9
2017-Jun-26 00:30N 46°25' W 001°54'38 2.4
2017-Jun-25 08:47N 46°12' W 002°46'22 0.8
2017-Jun-24 04:33N 46°24' W 002°19'7 8.5
2017-Jun-24 03:44N 46°25' W 002°09'2 8.2
2017-Jun-24 03:30N 46°25' W 002°06'4 8.1
2017-Jun-24 03:00N 46°26' W 002°01'4 8.2
2017-Jun-24 02:31N 46°27' W 001°55'4 8.3
2017-Jun-24 02:00N 46°28' W 001°49'2 4.2
2017-Jun-24 01:30N 46°30' W 001°47'0 0.3
2017-Jun-24 01:00N 46°30' W 001°47'1 2.7
2017-Jun-24 00:30N 46°29' W 001°47'4 8.4
2017-Jun-24 00:00N 46°27' W 001°53'4 8.5
2017-Jun-23 23:30N 46°26' W 001°59'34 3.1
2017-Jun-23 12:31N 46°13' W 002°44'6 1.7
2017-Jun-23 08:46N 46°10' W 002°35'3 1.2
2017-Jun-23 05:46N 46°12' W 002°31'9 9.3
2017-Jun-23 04:48N 46°16' W 002°19'4 8.9
2017-Jun-23 04:20N 46°18' W 002°14'3 8.8
2017-Jun-23 04:00N 46°19' W 002°10'4 8.7
2017-Jun-23 03:30N 46°21' W 002°04'4 8.3
2017-Jun-23 03:01N 46°23' W 001°59'4 8.0
2017-Jun-23 02:30N 46°25' W 001°54'4 8.0
2017-Jun-23 02:00N 46°27' W 001°49'3 5.8
2017-Jun-23 01:30N 46°30' W 001°47'0 0.1
2017-Jun-23 01:00N 46°30' W 001°47'2 3.8
2017-Jun-23 00:31N 46°28' W 001°48'4 8.5
2017-Jun-23 00:00N 46°26' W 001°53'40 4.8
2017-Jun-22 15:50N 46°10' W 002°45'4 1.2
2017-Jun-22 12:42N 46°09' W 002°40'4 3.1
2017-Jun-22 11:34N 46°12' W 002°43'0 1.3
2017-Jun-22 11:24N 46°12' W 002°43'1 2.9
2017-Jun-22 11:00N 46°13' W 002°44'2 2.2
2017-Jun-22 10:13N 46°12' W 002°43'1 3.6
2017-Jun-22 10:00N 46°11' W 002°42'2 3.6
2017-Jun-22 09:28N 46°10' W 002°40'2 3.6
2017-Jun-22 09:00N 46°08' W 002°38'2 3.6
2017-Jun-22 08:30N 46°07' W 002°37'4 3.2
2017-Jun-22 07:21N 46°04' W 002°34'1 3.2
2017-Jun-22 06:57N 46°05' W 002°35'2 3.4
2017-Jun-22 06:28N 46°06' W 002°36'0 1.0
2017-Jun-22 06:00N 46°06' W 002°37'2 3.5
2017-Jun-22 05:30N 46°05' W 002°36'2 3.3
2017-Jun-22 04:57N 46°03' W 002°34'1 2.2
2017-Jun-22 04:30N 46°04' W 002°34'2 3.6
2017-Jun-22 04:01N 46°06' W 002°36'2 3.8
2017-Jun-22 03:30N 46°07' W 002°38'1 2.1
2017-Jun-22 03:00N 46°08' W 002°37'1 2.2
2017-Jun-22 02:31N 46°09' W 002°36'0 0.8
2017-Jun-22 02:01N 46°09' W 002°37'0 0.7
2017-Jun-22 01:30N 46°09' W 002°37'0 0.6
2017-Jun-22 01:01N 46°09' W 002°37'0 0.5
2017-Jun-22 00:31N 46°08' W 002°38'0 0.5
2017-Jun-22 00:00N 46°08' W 002°38'0 0.5
2017-Jun-21 23:31N 46°08' W 002°38'0 0.4
2017-Jun-21 23:00N 46°08' W 002°38'1 2.9
2017-Jun-21 22:31N 46°06' W 002°38'0 0.5
2017-Jun-21 22:00N 46°06' W 002°38'0 0.4
2017-Jun-21 21:30N 46°06' W 002°37'1 1.4
2017-Jun-21 21:00N 46°05' W 002°37'2 3.1
2017-Jun-21 20:30N 46°04' W 002°36'1 2.7
2017-Jun-21 20:00N 46°04' W 002°34'2 3.0
2017-Jun-21 19:30N 46°05' W 002°35'2 3.1
2017-Jun-21 19:00N 46°05' W 002°37'2 2.9
2017-Jun-21 18:27N 46°03' W 002°38'2 3.5
2017-Jun-21 18:00N 46°03' W 002°35'2 3.1
2017-Jun-21 17:30N 46°05' W 002°35'2 3.4
2017-Jun-21 17:00N 46°06' W 002°37'1 1.3
2017-Jun-21 16:30N 46°07' W 002°37'2 3.6
2017-Jun-21 16:01N 46°05' W 002°36'2 3.5
2017-Jun-21 15:28N 46°03' W 002°35'1 1.8
2017-Jun-21 15:00N 46°04' W 002°35'4 3.6
2017-Jun-21 14:00N 46°07' W 002°37'2 3.5
2017-Jun-21 13:30N 46°09' W 002°37'2 3.3
2017-Jun-21 12:57N 46°11' W 002°36'2 2.7
2017-Jun-21 12:21N 46°11' W 002°34'1 2.9
2017-Jun-21 12:00N 46°10' W 002°34'2 3.6
2017-Jun-21 11:30N 46°11' W 002°37'2 3.6
2017-Jun-21 11:00N 46°12' W 002°38'2 3.6
2017-Jun-21 10:29N 46°13' W 002°40'2 3.5
2017-Jun-21 09:56N 46°15' W 002°42'1 3.3
2017-Jun-21 09:30N 46°16' W 002°42'2 3.7
2017-Jun-21 08:59N 46°18' W 002°43'3 6.9
2017-Jun-21 08:30N 46°21' W 002°46'5 8.3
2017-Jun-21 07:54N 46°25' W 002°49'3 8.4
2017-Jun-21 07:31N 46°28' W 002°52'4 8.5
2017-Jun-21 07:00N 46°32' W 002°55'4 8.6
2017-Jun-21 06:30N 46°35' W 002°58'4 8.5
2017-Jun-21 06:00N 46°39' W 003°01'5 8.7
2017-Jun-21 05:25N 46°43' W 003°05'4 8.8
2017-Jun-21 05:00N 46°46' W 003°08'4 8.9
2017-Jun-21 04:30N 46°50' W 003°11'5 8.9
2017-Jun-21 03:59N 46°54' W 003°14'4 8.9
2017-Jun-21 03:30N 46°58' W 003°18'4 8.6
2017-Jun-21 03:00N 47°02' W 003°21'4 8.6
2017-Jun-21 02:31N 47°05' W 003°24'4 8.7
2017-Jun-21 02:01N 47°09' W 003°27'4 8.9
2017-Jun-21 01:30N 47°13' W 003°31'4 9.0
2017-Jun-21 01:00N 47°17' W 003°34'5 9.2
2017-Jun-21 00:30N 47°21' W 003°37'5 9.4
2017-Jun-21 00:00N 47°25' W 003°41'4 9.0
2017-Jun-20 23:31N 47°29' W 003°44'4 8.8
2017-Jun-20 23:01N 47°32' W 003°47'4 8.8
2017-Jun-20 22:30N 47°36' W 003°50'4 8.4
2017-Jun-20 22:00N 47°40' W 003°53'6 8.4
2017-Jun-20 21:20N 47°46' W 003°55'3 8.4
2017-Jun-20 21:01N 47°48' W 003°56'4 0.4
2017-Jun-20 10:07N 47°53' W 003°55'0 0.0
2017-Jun-20 05:25N 47°53' W 003°55'0 0.0
2017-Jun-20 04:56N 47°53' W 003°55'0 0.0
2017-Jun-20 04:21N 47°53' W 003°55'  
2017-Jun-16 23:48N 47°51' W 003°56'3 8.1
2017-Jun-16 23:29N 47°49' W 003°57'4 8.5
2017-Jun-16 23:00N 47°45' W 003°55'5 8.3
2017-Jun-16 22:26N 47°41' W 003°53'4 8.4
2017-Jun-16 22:00N 47°38' W 003°50'4 8.4
2017-Jun-16 21:31N 47°34' W 003°46'4 8.3
2017-Jun-16 21:01N 47°31' W 003°43'4 8.3
2017-Jun-16 20:31N 47°27' W 003°39'4 8.3
2017-Jun-16 20:01N 47°24' W 003°37'4 8.4
2017-Jun-16 19:31N 47°20' W 003°34'  
Track history (hours):
 
Tides and Currents Weather Stations Pressure Air Temp Water Temp Dewpoint Dewpoint Depression Visibility Wind Speed Wind Dir Waves Ship Positions

F\v Desperado

Last reported at 2017-Jun-26 19:18 UTC. Time now 2017-Jun-26 20:57 UTC.
Position N 46°11' W 002°34'.

Type: Fishing. MMSI: 228312000.

Date/timePositionNaut miles runAvg speedWind from/ knotsBaromVisibWave heightAir tempDewpointWater temp
2017-Jun-26 19:18N 46°11' W 002°34'1 3.4
2017-Jun-26 18:57N 46°11' W 002°32'1 0.7
2017-Jun-26 17:49N 46°11' W 002°33'2 3.0
2017-Jun-26 17:17N 46°11' W 002°31'3 0.3
2017-Jun-26 06:30N 46°11' W 002°27'5 9.2
2017-Jun-26 05:59N 46°14' W 002°21'4 8.9
2017-Jun-26 05:30N 46°16' W 002°15'4 8.9
2017-Jun-26 05:00N 46°19' W 002°10'4 8.8
2017-Jun-26 04:30N 46°21' W 002°04'4 8.4
2017-Jun-26 04:01N 46°23' W 001°59'4 8.4
2017-Jun-26 03:30N 46°25' W 001°54'4 8.4
2017-Jun-26 03:00N 46°27' W 001°49'3 5.3
2017-Jun-26 02:30N 46°30' W 001°47'0 0.4
2017-Jun-26 02:01N 46°30' W 001°47'0 0.0
2017-Jun-26 01:30N 46°30' W 001°47'3 5.3
2017-Jun-26 01:00N 46°27' W 001°49'4 8.9
2017-Jun-26 00:30N 46°25' W 001°54'38 2.4
2017-Jun-25 08:47N 46°12' W 002°46'22 0.8
2017-Jun-24 04:33N 46°24' W 002°19'7 8.5
2017-Jun-24 03:44N 46°25' W 002°09'2 8.2
2017-Jun-24 03:30N 46°25' W 002°06'4 8.1
2017-Jun-24 03:00N 46°26' W 002°01'4 8.2
2017-Jun-24 02:31N 46°27' W 001°55'4 8.3
2017-Jun-24 02:00N 46°28' W 001°49'2 4.2
2017-Jun-24 01:30N 46°30' W 001°47'0 0.3
2017-Jun-24 01:00N 46°30' W 001°47'1 2.7
2017-Jun-24 00:30N 46°29' W 001°47'4 8.4
2017-Jun-24 00:00N 46°27' W 001°53'4 8.5
2017-Jun-23 23:30N 46°26' W 001°59'34 3.1
2017-Jun-23 12:31N 46°13' W 002°44'6 1.7
2017-Jun-23 08:46N 46°10' W 002°35'3 1.2
2017-Jun-23 05:46N 46°12' W 002°31'9 9.3
2017-Jun-23 04:48N 46°16' W 002°19'4 8.9
2017-Jun-23 04:20N 46°18' W 002°14'3 8.8
2017-Jun-23 04:00N 46°19' W 002°10'4 8.7
2017-Jun-23 03:30N 46°21' W 002°04'4 8.3
2017-Jun-23 03:01N 46°23' W 001°59'4 8.0
2017-Jun-23 02:30N 46°25' W 001°54'4 8.0
2017-Jun-23 02:00N 46°27' W 001°49'3 5.8
2017-Jun-23 01:30N 46°30' W 001°47'0 0.1
2017-Jun-23 01:00N 46°30' W 001°47'2 3.8
2017-Jun-23 00:31N 46°28' W 001°48'4 8.5
2017-Jun-23 00:00N 46°26' W 001°53'40 4.8
2017-Jun-22 15:50N 46°10' W 002°45'4 1.2
2017-Jun-22 12:42N 46°09' W 002°40'4 3.1
2017-Jun-22 11:34N 46°12' W 002°43'0 1.3
2017-Jun-22 11:24N 46°12' W 002°43'1 2.9
2017-Jun-22 11:00N 46°13' W 002°44'2 2.2
2017-Jun-22 10:13N 46°12' W 002°43'1 3.6
2017-Jun-22 10:00N 46°11' W 002°42'2 3.6
2017-Jun-22 09:28N 46°10' W 002°40'2 3.6
2017-Jun-22 09:00N 46°08' W 002°38'2 3.6
2017-Jun-22 08:30N 46°07' W 002°37'4 3.2
2017-Jun-22 07:21N 46°04' W 002°34'1 3.2
2017-Jun-22 06:57N 46°05' W 002°35'2 3.4
2017-Jun-22 06:28N 46°06' W 002°36'0 1.0
2017-Jun-22 06:00N 46°06' W 002°37'2 3.5
2017-Jun-22 05:30N 46°05' W 002°36'2 3.3
2017-Jun-22 04:57N 46°03' W 002°34'1 2.2
2017-Jun-22 04:30N 46°04' W 002°34'2 3.6
2017-Jun-22 04:01N 46°06' W 002°36'2 3.8
2017-Jun-22 03:30N 46°07' W 002°38'1 2.1
2017-Jun-22 03:00N 46°08' W 002°37'1 2.2
2017-Jun-22 02:31N 46°09' W 002°36'0 0.8
2017-Jun-22 02:01N 46°09' W 002°37'0 0.7
2017-Jun-22 01:30N 46°09' W 002°37'0 0.6
2017-Jun-22 01:01N 46°09' W 002°37'0 0.5
2017-Jun-22 00:31N 46°08' W 002°38'0 0.5
2017-Jun-22 00:00N 46°08' W 002°38'0 0.5
2017-Jun-21 23:31N 46°08' W 002°38'0 0.4
2017-Jun-21 23:00N 46°08' W 002°38'1 2.9
2017-Jun-21 22:31N 46°06' W 002°38'0 0.5
2017-Jun-21 22:00N 46°06' W 002°38'0 0.4
2017-Jun-21 21:30N 46°06' W 002°37'1 1.4
2017-Jun-21 21:00N 46°05' W 002°37'2 3.1
2017-Jun-21 20:30N 46°04' W 002°36'1 2.7
2017-Jun-21 20:00N 46°04' W 002°34'2 3.0
2017-Jun-21 19:30N 46°05' W 002°35'2 3.1
2017-Jun-21 19:00N 46°05' W 002°37'2 2.9
2017-Jun-21 18:27N 46°03' W 002°38'2 3.5
2017-Jun-21 18:00N 46°03' W 002°35'2 3.1
2017-Jun-21 17:30N 46°05' W 002°35'2 3.4
2017-Jun-21 17:00N 46°06' W 002°37'1 1.3
2017-Jun-21 16:30N 46°07' W 002°37'2 3.6
2017-Jun-21 16:01N 46°05' W 002°36'2 3.5
2017-Jun-21 15:28N 46°03' W 002°35'1 1.8
2017-Jun-21 15:00N 46°04' W 002°35'4 3.6
2017-Jun-21 14:00N 46°07' W 002°37'2 3.5
2017-Jun-21 13:30N 46°09' W 002°37'2 3.3
2017-Jun-21 12:57N 46°11' W 002°36'2 2.7
2017-Jun-21 12:21N 46°11' W 002°34'1 2.9
2017-Jun-21 12:00N 46°10' W 002°34'2 3.6
2017-Jun-21 11:30N 46°11' W 002°37'2 3.6
2017-Jun-21 11:00N 46°12' W 002°38'2 3.6
2017-Jun-21 10:29N 46°13' W 002°40'2 3.5
2017-Jun-21 09:56N 46°15' W 002°42'1 3.3
2017-Jun-21 09:30N 46°16' W 002°42'2 3.7
2017-Jun-21 08:59N 46°18' W 002°43'3 6.9
2017-Jun-21 08:30N 46°21' W 002°46'5 8.3
2017-Jun-21 07:54N 46°25' W 002°49'3 8.4
2017-Jun-21 07:31N 46°28' W 002°52'4 8.5
2017-Jun-21 07:00N 46°32' W 002°55'4 8.6
2017-Jun-21 06:30N 46°35' W 002°58'4 8.5
2017-Jun-21 06:00N 46°39' W 003°01'5 8.7
2017-Jun-21 05:25N 46°43' W 003°05'4 8.8
2017-Jun-21 05:00N 46°46' W 003°08'4 8.9
2017-Jun-21 04:30N 46°50' W 003°11'5 8.9
2017-Jun-21 03:59N 46°54' W 003°14'4 8.9
2017-Jun-21 03:30N 46°58' W 003°18'4 8.6
2017-Jun-21 03:00N 47°02' W 003°21'4 8.6
2017-Jun-21 02:31N 47°05' W 003°24'4 8.7
2017-Jun-21 02:01N 47°09' W 003°27'4 8.9
2017-Jun-21 01:30N 47°13' W 003°31'4 9.0
2017-Jun-21 01:00N 47°17' W 003°34'5 9.2
2017-Jun-21 00:30N 47°21' W 003°37'5 9.4
2017-Jun-21 00:00N 47°25' W 003°41'4 9.0
2017-Jun-20 23:31N 47°29' W 003°44'4 8.8
2017-Jun-20 23:01N 47°32' W 003°47'4 8.8
2017-Jun-20 22:30N 47°36' W 003°50'4 8.4
2017-Jun-20 22:00N 47°40' W 003°53'6 8.4
2017-Jun-20 21:20N 47°46' W 003°55'3 8.4
2017-Jun-20 21:01N 47°48' W 003°56'4 0.4
2017-Jun-20 10:07N 47°53' W 003°55'0 0.0
2017-Jun-20 05:25N 47°53' W 003°55'0 0.0
2017-Jun-20 04:56N 47°53' W 003°55'0 0.0
2017-Jun-20 04:21N 47°53' W 003°55'  
2017-Jun-16 23:48N 47°51' W 003°56'3 8.1
2017-Jun-16 23:29N 47°49' W 003°57'4 8.5
2017-Jun-16 23:00N 47°45' W 003°55'5 8.3
2017-Jun-16 22:26N 47°41' W 003°53'4 8.4
2017-Jun-16 22:00N 47°38' W 003°50'4 8.4
2017-Jun-16 21:31N 47°34' W 003°46'4 8.3
2017-Jun-16 21:01N 47°31' W 003°43'4 8.3
2017-Jun-16 20:31N 47°27' W 003°39'4 8.3
2017-Jun-16 20:01N 47°24' W 003°37'4 8.4
2017-Jun-16 19:31N 47°20' W 003°34'  

Dump ship's entire track history